createdAt,value
2023-02-27T00:00:14.952Z,2.90
2023-02-27T00:02:43.440Z,2.90
2023-02-27T00:05:10.496Z,2.90
2023-02-27T00:07:37.528Z,2.90
2023-02-27T00:10:05.049Z,2.90
2023-02-27T00:12:37.607Z,2.90
2023-02-27T00:15:06.070Z,2.90
2023-02-27T00:17:33.070Z,2.80
2023-02-27T00:19:59.950Z,2.80
2023-02-27T00:22:27.109Z,2.80
2023-02-27T00:24:53.999Z,2.70
2023-02-27T00:27:20.864Z,2.80
2023-02-27T00:29:47.660Z,2.70
2023-02-27T00:32:14.835Z,2.70
2023-02-27T00:34:41.937Z,2.70
2023-02-27T00:37:10.538Z,2.70
2023-02-27T00:39:37.432Z,2.70
2023-02-27T00:42:04.463Z,2.70
2023-02-27T00:44:31.957Z,2.70
2023-02-27T00:46:58.854Z,2.70
2023-02-27T00:49:26.142Z,2.70
2023-02-27T00:51:53.832Z,2.70
2023-02-27T00:54:20.717Z,2.60
2023-02-27T00:56:47.684Z,2.50
2023-02-27T00:59:14.848Z,2.60
2023-02-27T01:01:41.897Z,2.60
2023-02-27T01:04:08.736Z,2.60
2023-02-27T01:06:35.643Z,2.60
2023-02-27T01:09:02.680Z,2.60
2023-02-27T01:11:29.727Z,2.60
2023-02-27T01:13:57.104Z,2.50
2023-02-27T01:16:24.224Z,2.50
2023-02-27T01:18:51.833Z,2.50
2023-02-27T01:21:18.711Z,2.50
2023-02-27T01:23:45.593Z,2.40
2023-02-27T01:26:12.590Z,2.30
2023-02-27T01:28:39.651Z,2.20
2023-02-27T01:31:06.486Z,2.20
2023-02-27T01:33:33.366Z,2.10
2023-02-27T01:36:00.743Z,2.20
2023-02-27T01:38:27.804Z,2.20
2023-02-27T01:40:55.138Z,2.20
2023-02-27T01:43:22.544Z,2.20
2023-02-27T01:45:52.858Z,2.20
2023-02-27T01:48:19.717Z,2.20
2023-02-27T01:51:02.828Z,2.10
2023-02-27T01:53:30.628Z,2.10
2023-02-27T01:56:10.295Z,2.10
2023-02-27T01:58:37.568Z,2.10
2023-02-27T02:01:04.776Z,2.10
2023-02-27T02:03:39.194Z,2.10
2023-02-27T02:06:07.226Z,2.10
2023-02-27T02:08:39.104Z,2.10
2023-02-27T02:11:06.287Z,2.00
2023-02-27T02:13:33.252Z,2.00
2023-02-27T02:16:21.877Z,1.90
2023-02-27T02:19:02.151Z,2.00
2023-02-27T02:22:07.090Z,2.10
2023-02-27T02:24:52.632Z,2.10
2023-02-27T02:27:51.559Z,2.10
2023-02-27T02:30:39.731Z,2.10
2023-02-27T02:33:44.582Z,2.00
2023-02-27T02:36:23.501Z,2.00
2023-02-27T02:39:28.026Z,2.00
2023-02-27T02:42:00.575Z,2.10
2023-02-27T02:44:41.257Z,2.00
2023-02-27T02:47:17.094Z,2.00
2023-02-27T02:49:57.235Z,2.00
2023-02-27T02:53:01.907Z,1.90
2023-02-27T02:55:38.160Z,1.80
2023-02-27T02:58:29.256Z,1.80
2023-02-27T03:01:16.470Z,1.70
2023-02-27T03:03:50.119Z,1.60
2023-02-27T03:06:22.335Z,1.60
2023-02-27T03:08:58.116Z,1.50
2023-02-27T03:11:26.529Z,1.50
2023-02-27T03:14:04.688Z,1.40
2023-02-27T03:16:43.080Z,1.40
2023-02-27T03:19:21.363Z,1.40
2023-02-27T03:22:01.609Z,1.40
2023-02-27T03:24:54.171Z,1.40
2023-02-27T03:27:21.945Z,1.30
2023-02-27T03:30:08.360Z,1.30
2023-02-27T03:32:53.493Z,1.30
2023-02-27T03:35:20.577Z,1.30
2023-02-27T03:38:01.001Z,1.20
2023-02-27T03:40:28.998Z,1.20
2023-02-27T03:43:14.668Z,1.10
2023-02-27T03:46:07.428Z,1.10
2023-02-27T03:48:34.354Z,1.00
2023-02-27T03:51:01.309Z,1.00
2023-02-27T03:53:48.823Z,1.00
2023-02-27T03:56:17.098Z,1.00
2023-02-27T03:58:44.126Z,1.00
2023-02-27T04:01:11.659Z,0.90
2023-02-27T04:03:42.172Z,0.90
2023-02-27T04:06:29.896Z,0.90
2023-02-27T04:09:08.005Z,0.90
2023-02-27T04:11:40.557Z,0.80
2023-02-27T04:14:10.313Z,0.80
2023-02-27T04:16:49.605Z,0.70
2023-02-27T04:19:16.424Z,0.70
2023-02-27T04:21:46.109Z,0.60
2023-02-27T04:25:01.778Z,0.70
2023-02-27T04:27:39.412Z,0.70
2023-02-27T04:30:11.778Z,0.70
2023-02-27T04:32:39.784Z,0.60
2023-02-27T04:35:10.553Z,0.60
2023-02-27T04:38:00.325Z,0.60
2023-02-27T04:40:39.354Z,0.70
2023-02-27T04:43:07.621Z,0.60
2023-02-27T04:45:35.614Z,0.60
2023-02-27T04:48:07.311Z,0.60
2023-02-27T04:51:00.758Z,0.60
2023-02-27T04:54:00.650Z,0.60
2023-02-27T04:56:34.325Z,0.60
2023-02-27T04:59:08.513Z,0.50
2023-02-27T05:01:41.076Z,0.60
2023-02-27T05:04:09.001Z,0.50
2023-02-27T05:06:36.751Z,0.50
2023-02-27T05:09:27.320Z,0.50
2023-02-27T05:12:00.790Z,0.50
2023-02-27T05:14:38.458Z,0.50
2023-02-27T05:17:08.007Z,0.40
2023-02-27T05:19:34.823Z,0.40
2023-02-27T05:22:13.670Z,0.30
2023-02-27T05:24:45.825Z,0.30
2023-02-27T05:27:34.144Z,0.20
2023-02-27T05:30:09.821Z,0.20
2023-02-27T05:33:13.998Z,0.30
2023-02-27T05:35:45.944Z,0.20
2023-02-27T05:38:26.966Z,0.10
2023-02-27T05:41:01.220Z,0.00
2023-02-27T05:43:29.485Z,0.00
2023-02-27T05:46:01.499Z,-0.10
2023-02-27T05:48:30.796Z,-0.10
2023-02-27T05:50:57.680Z,-0.10
2023-02-27T05:53:25.998Z,-0.10
2023-02-27T05:55:57.514Z,-0.10
2023-02-27T05:58:30.054Z,-0.10
2023-02-27T06:01:00.546Z,-0.10
2023-02-27T06:03:31.956Z,-0.10
2023-02-27T06:05:59.957Z,-0.10
2023-02-27T06:08:26.902Z,-0.10
2023-02-27T06:10:55.231Z,-0.10
2023-02-27T06:13:22.485Z,-0.10
2023-02-27T06:15:49.498Z,-0.20
2023-02-27T06:18:16.613Z,-0.20
2023-02-27T06:20:43.804Z,-0.20
2023-02-27T06:23:11.548Z,-0.20
2023-02-27T06:25:38.795Z,-0.20
2023-02-27T06:28:06.007Z,-0.20
2023-02-27T06:30:32.938Z,-0.20
2023-02-27T06:33:01.030Z,-0.20
2023-02-27T06:35:29.332Z,-0.20
2023-02-27T06:37:59.004Z,-0.20
2023-02-27T06:40:26.151Z,-0.20
2023-02-27T06:42:52.992Z,-0.10
2023-02-27T06:45:20.001Z,-0.10
2023-02-27T06:47:46.882Z,-0.20
2023-02-27T06:50:13.943Z,-0.10
2023-02-27T06:52:40.908Z,-0.20
2023-02-27T06:55:08.808Z,-0.10
2023-02-27T06:57:36.247Z,-0.10
2023-02-27T07:00:04.579Z,-0.10
2023-02-27T07:02:31.728Z,-0.10
2023-02-27T07:04:58.620Z,-0.10
2023-02-27T07:07:35.795Z,-0.20
2023-02-27T07:10:06.376Z,-0.20
2023-02-27T07:12:33.219Z,-0.30
2023-02-27T07:15:00.224Z,-0.20
2023-02-27T07:17:27.133Z,-0.30
2023-02-27T07:19:54.630Z,-0.30
2023-02-27T07:22:21.565Z,-0.30
2023-02-27T07:24:48.461Z,-0.30
2023-02-27T07:27:15.389Z,-0.30
2023-02-27T07:29:42.291Z,-0.20
2023-02-27T07:32:09.226Z,-0.30
2023-02-27T07:34:36.150Z,-0.30
2023-02-27T07:37:03.073Z,-0.20
2023-02-27T07:39:30.030Z,-0.20
2023-02-27T07:41:56.957Z,-0.10
2023-02-27T07:44:23.819Z,-0.20
2023-02-27T07:46:50.673Z,-0.10
2023-02-27T07:49:17.615Z,-0.20
2023-02-27T07:51:44.591Z,-0.20
2023-02-27T07:54:11.558Z,-0.10
2023-02-27T07:56:38.396Z,0.00
2023-02-27T07:59:05.312Z,0.10
2023-02-27T08:01:32.194Z,0.10
2023-02-27T08:03:59.085Z,0.10
2023-02-27T08:06:26.306Z,0.20
2023-02-27T08:08:53.455Z,0.30
2023-02-27T08:11:20.294Z,0.40
2023-02-27T08:14:03.191Z,0.40
2023-02-27T08:16:31.226Z,0.60
2023-02-27T08:18:58.743Z,0.70
2023-02-27T08:21:26.203Z,0.70
2023-02-27T08:23:53.190Z,0.80
2023-02-27T08:26:20.143Z,0.90
2023-02-27T08:28:46.942Z,1.00
2023-02-27T08:31:13.808Z,1.10
2023-02-27T08:33:40.688Z,1.10
2023-02-27T08:36:08.227Z,1.20
2023-02-27T08:38:35.120Z,1.30
2023-02-27T08:41:01.991Z,1.40
2023-02-27T08:43:28.826Z,1.50
2023-02-27T08:45:55.755Z,1.60
2023-02-27T08:48:24.812Z,1.80
2023-02-27T08:50:51.884Z,1.90
2023-02-27T08:53:18.800Z,2.00
2023-02-27T08:55:50.000Z,2.10
2023-02-27T08:58:18.178Z,2.20
2023-02-27T09:00:45.341Z,2.40
2023-02-27T09:03:12.216Z,2.50
2023-02-27T09:05:39.435Z,2.70
2023-02-27T09:08:07.162Z,2.80
2023-02-27T09:10:34.417Z,2.90
2023-02-27T09:13:01.368Z,3.00
2023-02-27T09:15:28.494Z,3.10
2023-02-27T09:18:03.136Z,3.20
2023-02-27T09:20:31.710Z,3.30
2023-02-27T09:22:59.370Z,3.40
2023-02-27T09:25:26.613Z,3.40
2023-02-27T09:27:53.559Z,3.50
2023-02-27T09:30:20.593Z,3.60
2023-02-27T09:32:47.581Z,3.70
2023-02-27T09:35:15.925Z,3.80
2023-02-27T09:37:46.151Z,3.90
2023-02-27T09:40:27.327Z,3.90
2023-02-27T09:42:57.075Z,4.10
2023-02-27T09:45:25.727Z,4.20
2023-02-27T09:48:06.605Z,4.30
2023-02-27T09:50:44.922Z,4.40
2023-02-27T09:53:19.337Z,4.50
2023-02-27T09:55:46.314Z,4.60
2023-02-27T09:58:25.500Z,4.70
2023-02-27T10:01:20.511Z,4.80
2023-02-27T10:04:19.803Z,4.90
2023-02-27T10:06:51.385Z,4.90
2023-02-27T10:09:21.719Z,4.90
2023-02-27T10:12:15.780Z,5.00
2023-02-27T10:14:45.836Z,5.10
2023-02-27T10:17:30.951Z,5.30
2023-02-27T10:19:58.433Z,5.30
2023-02-27T10:22:33.814Z,5.40
2023-02-27T10:25:03.375Z,5.50
2023-02-27T10:27:30.735Z,5.60
2023-02-27T10:30:05.717Z,5.70
2023-02-27T10:32:32.872Z,5.70
2023-02-27T10:35:08.234Z,5.80
2023-02-27T10:37:36.175Z,5.90
2023-02-27T10:40:04.742Z,6.00
2023-02-27T10:42:36.276Z,6.00
2023-02-27T10:45:04.662Z,6.00
2023-02-27T10:47:31.591Z,6.00
2023-02-27T10:50:00.382Z,6.00
2023-02-27T10:52:27.448Z,6.00
2023-02-27T10:54:54.301Z,6.10
2023-02-27T10:57:31.473Z,6.10
2023-02-27T11:00:06.410Z,6.10
2023-02-27T11:02:40.774Z,6.00
2023-02-27T11:05:27.192Z,5.90
2023-02-27T11:07:55.017Z,5.90
2023-02-27T11:10:27.058Z,5.90
2023-02-27T11:13:01.352Z,5.90
2023-02-27T11:15:30.527Z,6.00
2023-02-27T11:18:28.672Z,6.10
2023-02-27T11:21:14.321Z,6.10
2023-02-27T11:24:01.178Z,6.20
2023-02-27T11:26:33.331Z,6.20
2023-02-27T11:29:15.186Z,6.20
2023-02-27T11:31:56.413Z,6.30
2023-02-27T11:34:40.413Z,6.40
2023-02-27T11:37:18.659Z,6.40
2023-02-27T11:39:52.926Z,6.50
2023-02-27T11:42:34.116Z,6.60
2023-02-27T11:46:10.770Z,6.70
2023-02-27T11:48:18.665Z,6.80
2023-02-27T11:51:09.137Z,6.80
2023-02-27T11:53:54.907Z,6.80
2023-02-27T11:56:25.257Z,6.90
2023-02-27T11:59:17.731Z,6.80
2023-02-27T12:01:50.731Z,6.90
2023-02-27T12:04:36.466Z,6.90
2023-02-27T12:07:06.482Z,7.00
2023-02-27T12:09:45.903Z,7.10
2023-02-27T12:12:43.386Z,7.20
2023-02-27T12:15:18.608Z,7.30
2023-02-27T12:17:52.541Z,7.30
2023-02-27T12:20:27.480Z,7.30
2023-02-27T12:22:55.847Z,7.40
2023-02-27T12:25:49.685Z,7.40
2023-02-27T12:28:19.015Z,7.40
2023-02-27T12:30:51.999Z,7.40
2023-02-27T12:33:26.365Z,7.40
2023-02-27T12:35:56.344Z,7.40
2023-02-27T12:38:23.320Z,7.30
2023-02-27T12:40:56.170Z,7.30
2023-02-27T12:43:23.965Z,7.30
2023-02-27T12:46:25.597Z,7.30
2023-02-27T12:48:57.654Z,7.30
2023-02-27T12:51:30.629Z,7.40
2023-02-27T12:54:22.692Z,7.50
2023-02-27T12:56:56.651Z,7.60
2023-02-27T12:59:26.482Z,7.70
2023-02-27T13:02:32.053Z,7.80
2023-02-27T13:05:24.090Z,7.80
2023-02-27T13:08:13.878Z,7.80
2023-02-27T13:10:48.181Z,7.70
2023-02-27T13:13:47.697Z,7.70
2023-02-27T13:16:20.694Z,7.70
2023-02-27T13:19:06.009Z,7.70
2023-02-27T13:21:56.099Z,7.80
2023-02-27T13:24:27.400Z,7.90
2023-02-27T13:27:04.210Z,8.00
2023-02-27T13:29:40.860Z,8.00
2023-02-27T13:32:41.290Z,8.10
2023-02-27T13:35:45.368Z,8.10
2023-02-27T13:38:45.737Z,8.20
2023-02-27T13:41:21.501Z,8.10
2023-02-27T13:43:53.128Z,8.10
2023-02-27T13:46:28.076Z,8.00
2023-02-27T13:49:12.532Z,8.10
2023-02-27T13:51:44.802Z,8.20
2023-02-27T13:54:17.479Z,8.30
2023-02-27T13:56:48.151Z,8.30
2023-02-27T13:59:28.918Z,8.30
2023-02-27T14:02:10.447Z,8.30
2023-02-27T14:04:39.555Z,8.30
2023-02-27T14:07:09.289Z,8.30
2023-02-27T14:09:38.937Z,8.20
2023-02-27T14:12:06.674Z,8.30
2023-02-27T14:14:40.505Z,8.20
2023-02-27T14:17:10.052Z,8.20
2023-02-27T14:19:44.468Z,8.10
2023-02-27T14:22:11.467Z,8.20
2023-02-27T14:25:00.010Z,8.20
2023-02-27T14:27:44.114Z,8.10
2023-02-27T14:30:22.467Z,8.00
2023-02-27T14:32:54.510Z,8.00
2023-02-27T14:35:21.325Z,8.00
2023-02-27T14:37:48.184Z,8.00
2023-02-27T14:40:29.645Z,8.00
2023-02-27T14:43:26.019Z,8.10
2023-02-27T14:45:53.424Z,8.10
2023-02-27T14:48:25.747Z,8.20
2023-02-27T14:50:53.776Z,8.10
2023-02-27T14:53:25.713Z,8.10
2023-02-27T14:55:57.267Z,8.10
2023-02-27T14:58:24.261Z,8.00
2023-02-27T15:01:11.554Z,8.00
2023-02-27T15:04:01.919Z,7.90
2023-02-27T15:06:35.953Z,7.90
2023-02-27T15:09:03.339Z,7.90
2023-02-27T15:11:30.436Z,7.90
2023-02-27T15:13:59.733Z,7.90
2023-02-27T15:16:26.606Z,7.80
2023-02-27T15:18:59.064Z,7.80
2023-02-27T15:21:27.379Z,7.80
2023-02-27T15:23:59.359Z,7.90
2023-02-27T15:26:30.085Z,7.90
2023-02-27T15:28:59.742Z,7.90
2023-02-27T15:31:29.304Z,7.90
2023-02-27T15:33:56.671Z,8.10
2023-02-27T15:36:26.021Z,8.10
2023-02-27T15:39:16.634Z,8.10
2023-02-27T15:41:49.164Z,8.10
2023-02-27T15:44:16.926Z,8.10
2023-02-27T15:46:44.380Z,8.10
2023-02-27T15:49:19.041Z,8.00
2023-02-27T15:52:00.450Z,8.00
2023-02-27T15:54:34.304Z,8.00
2023-02-27T15:57:03.218Z,7.90
2023-02-27T15:59:30.964Z,7.90
2023-02-27T16:02:00.859Z,7.80
2023-02-27T16:04:27.837Z,7.80
2023-02-27T16:07:04.215Z,7.70
2023-02-27T16:09:37.414Z,7.60
2023-02-27T16:12:31.585Z,7.60
2023-02-27T16:15:17.504Z,7.60
2023-02-27T16:17:56.577Z,7.60
2023-02-27T16:20:38.654Z,7.50
2023-02-27T16:23:27.766Z,7.50
2023-02-27T16:26:15.268Z,7.50
2023-02-27T16:28:51.266Z,7.60
2023-02-27T16:31:28.186Z,7.60
2023-02-27T16:33:56.248Z,7.60
2023-02-27T16:36:24.812Z,7.60
2023-02-27T16:38:51.945Z,7.50
2023-02-27T16:41:20.186Z,7.50
2023-02-27T16:43:47.858Z,7.40
2023-02-27T16:46:20.051Z,7.40
2023-02-27T16:48:51.729Z,7.30
2023-02-27T16:51:19.668Z,7.40
2023-02-27T16:53:47.647Z,7.30
2023-02-27T16:56:14.811Z,7.30
2023-02-27T16:58:41.663Z,7.30
2023-02-27T17:01:08.733Z,7.30
2023-02-27T17:03:35.716Z,7.30
2023-02-27T17:06:03.490Z,7.20
2023-02-27T17:08:31.221Z,7.20
2023-02-27T17:10:58.197Z,7.10
2023-02-27T17:13:25.280Z,7.10
2023-02-27T17:15:52.294Z,7.10
2023-02-27T17:18:19.563Z,7.00
2023-02-27T17:20:46.381Z,7.00
2023-02-27T17:23:14.458Z,6.90
2023-02-27T17:25:42.336Z,6.90
2023-02-27T17:28:09.268Z,6.90
2023-02-27T17:30:36.227Z,6.90
2023-02-27T17:33:04.278Z,6.90
2023-02-27T17:35:31.330Z,6.80
2023-02-27T17:37:59.500Z,6.80
2023-02-27T17:40:26.721Z,6.80
2023-02-27T17:42:53.555Z,6.70
2023-02-27T17:45:21.226Z,6.80
2023-02-27T17:47:48.439Z,6.80
2023-02-27T17:50:15.575Z,6.70
2023-02-27T17:52:42.540Z,6.70
2023-02-27T17:55:10.224Z,6.70
2023-02-27T17:57:37.693Z,6.70
2023-02-27T18:00:05.998Z,6.70
2023-02-27T18:02:33.074Z,6.70
2023-02-27T18:04:59.955Z,6.70
2023-02-27T18:07:26.769Z,6.70
2023-02-27T18:09:53.726Z,6.70
2023-02-27T18:12:20.585Z,6.60
2023-02-27T18:14:47.469Z,6.60
2023-02-27T18:17:14.336Z,6.60
2023-02-27T18:19:41.799Z,6.50
2023-02-27T18:22:09.813Z,6.50
2023-02-27T18:24:36.832Z,6.40
2023-02-27T18:27:03.853Z,6.40
2023-02-27T18:29:30.669Z,6.30
2023-02-27T18:31:57.578Z,6.30
2023-02-27T18:34:25.129Z,6.20
2023-02-27T18:36:56.476Z,6.20
2023-02-27T18:39:24.727Z,6.20
2023-02-27T18:41:51.580Z,6.20
2023-02-27T18:44:18.427Z,6.20
2023-02-27T18:46:45.507Z,6.20
2023-02-27T18:49:12.420Z,6.20
2023-02-27T18:51:39.237Z,6.20
2023-02-27T18:54:07.086Z,6.10
2023-02-27T18:56:33.955Z,6.20
2023-02-27T18:59:05.072Z,6.20
2023-02-27T19:01:38.483Z,6.20
2023-02-27T19:04:06.425Z,6.20
2023-02-27T19:06:34.458Z,6.30
2023-02-27T19:09:01.312Z,6.20
2023-02-27T19:11:33.003Z,6.10
2023-02-27T19:14:01.138Z,6.10
2023-02-27T19:16:28.423Z,6.00
2023-02-27T19:18:57.080Z,6.00
2023-02-27T19:21:25.084Z,6.00
2023-02-27T19:23:52.135Z,6.00
2023-02-27T19:26:19.272Z,6.00
2023-02-27T19:28:46.164Z,5.80
2023-02-27T19:31:13.896Z,5.80
2023-02-27T19:33:40.893Z,5.80
2023-02-27T19:36:12.633Z,5.80
2023-02-27T19:38:39.508Z,5.80
2023-02-27T19:41:10.874Z,5.80
2023-02-27T19:43:38.481Z,5.90
2023-02-27T19:46:09.518Z,5.90
2023-02-27T19:48:36.704Z,5.80
2023-02-27T19:51:04.781Z,5.80
2023-02-27T19:53:31.925Z,5.80
2023-02-27T19:56:03.982Z,5.80
2023-02-27T19:58:31.019Z,5.70
2023-02-27T20:00:57.899Z,5.70
2023-02-27T20:03:24.816Z,5.70
2023-02-27T20:05:51.766Z,5.80
2023-02-27T20:08:18.735Z,5.80
2023-02-27T20:10:59.358Z,5.80
2023-02-27T20:13:26.767Z,5.80
2023-02-27T20:16:04.823Z,5.80
2023-02-27T20:18:31.979Z,5.80
2023-02-27T20:21:10.091Z,5.70
2023-02-27T20:23:38.539Z,5.70
2023-02-27T20:26:28.505Z,5.80
2023-02-27T20:28:56.311Z,5.80
2023-02-27T20:31:25.580Z,5.80
2023-02-27T20:33:52.597Z,5.80
2023-02-27T20:36:19.533Z,5.80
2023-02-27T20:38:46.494Z,5.90
2023-02-27T20:41:17.969Z,5.90
2023-02-27T20:43:45.211Z,5.90
2023-02-27T20:46:16.962Z,5.90
2023-02-27T20:48:43.875Z,6.00
2023-02-27T20:51:13.582Z,5.90
2023-02-27T20:53:41.374Z,6.00
2023-02-27T20:56:08.496Z,5.90
2023-02-27T20:58:35.449Z,5.90
2023-02-27T21:01:05.105Z,5.90
2023-02-27T21:03:38.620Z,5.90
2023-02-27T21:06:06.837Z,5.90
2023-02-27T21:08:36.560Z,5.90
2023-02-27T21:11:09.762Z,5.90
2023-02-27T21:13:37.122Z,5.90
2023-02-27T21:16:04.867Z,5.90
2023-02-27T21:18:31.869Z,5.90
2023-02-27T21:21:04.056Z,5.80
2023-02-27T21:23:31.010Z,5.80
2023-02-27T21:25:57.909Z,5.90
2023-02-27T21:28:25.048Z,5.90
2023-02-27T21:30:54.829Z,5.90
2023-02-27T21:33:22.318Z,5.90
2023-02-27T21:35:49.252Z,5.90
2023-02-27T21:38:16.584Z,5.90
2023-02-27T21:40:43.436Z,5.90
2023-02-27T21:43:10.304Z,5.90
2023-02-27T21:45:41.505Z,5.90
2023-02-27T21:48:08.694Z,5.90
2023-02-27T21:50:36.808Z,5.90
2023-02-27T21:53:03.632Z,5.90
2023-02-27T21:55:30.520Z,5.90
2023-02-27T21:57:57.490Z,6.00
2023-02-27T22:00:26.579Z,6.00
2023-02-27T22:02:53.670Z,5.90
2023-02-27T22:05:20.712Z,5.90
2023-02-27T22:07:47.637Z,5.90
2023-02-27T22:10:14.506Z,5.90
2023-02-27T22:12:41.383Z,5.90
2023-02-27T22:15:08.858Z,5.90
2023-02-27T22:17:35.745Z,5.90
2023-02-27T22:20:02.792Z,5.80
2023-02-27T22:22:29.668Z,5.70
2023-02-27T22:24:56.519Z,5.70
2023-02-27T22:27:23.383Z,5.60
2023-02-27T22:29:50.256Z,5.60
2023-02-27T22:32:17.168Z,5.60
2023-02-27T22:34:44.047Z,5.60
2023-02-27T22:37:10.841Z,5.60
2023-02-27T22:39:37.890Z,5.50
2023-02-27T22:42:04.781Z,5.50
2023-02-27T22:44:31.715Z,5.50
2023-02-27T22:46:58.666Z,5.40
2023-02-27T22:49:25.488Z,5.30
2023-02-27T22:51:52.432Z,5.30
2023-02-27T22:54:20.728Z,5.30
2023-02-27T22:56:50.091Z,5.20
2023-02-27T22:59:16.903Z,5.20
2023-02-27T23:01:43.814Z,5.20
2023-02-27T23:04:11.363Z,5.20
2023-02-27T23:06:39.592Z,5.20
2023-02-27T23:09:08.031Z,5.10
2023-02-27T23:11:34.897Z,5.10
2023-02-27T23:14:01.705Z,5.00
2023-02-27T23:16:28.766Z,4.90
2023-02-27T23:18:57.517Z,4.90
2023-02-27T23:21:26.368Z,4.80
2023-02-27T23:23:58.037Z,4.80
2023-02-27T23:26:28.485Z,4.80
2023-02-27T23:28:56.180Z,4.80
2023-02-27T23:31:23.110Z,4.70
2023-02-27T23:33:50.328Z,4.70
2023-02-27T23:36:17.703Z,4.70
2023-02-27T23:38:46.595Z,4.70
2023-02-27T23:41:16.714Z,4.60
2023-02-27T23:43:44.507Z,4.60
2023-02-27T23:46:13.293Z,4.60
2023-02-27T23:48:40.398Z,4.60
2023-02-27T23:51:07.896Z,4.60
2023-02-27T23:53:35.456Z,4.60
2023-02-27T23:56:11.180Z,4.50
2023-02-27T23:58:38.046Z,4.50
